sensor_id;sensor_type;location;lat;lon;timestamp;P1;durP1;ratioP1;P2;durP2;ratioP2
72771;SDS011;60894;42.544;1.516;2023-07-20T00:02:24;15.52;;;4.60;;
72771;SDS011;60894;42.544;1.516;2023-07-20T00:04:51;17.13;;;4.03;;
72771;SDS011;60894;42.544;1.516;2023-07-20T00:07:18;15.23;;;4.43;;
72771;SDS011;60894;42.544;1.516;2023-07-20T00:09:47;20.77;;;4.85;;
72771;SDS011;60894;42.544;1.516;2023-07-20T00:12:14;21.52;;;4.22;;
72771;SDS011;60894;42.544;1.516;2023-07-20T00:14:41;16.80;;;4.47;;
72771;SDS011;60894;42.544;1.516;2023-07-20T00:17:08;16.80;;;4.45;;
72771;SDS011;60894;42.544;1.516;2023-07-20T00:19:35;14.37;;;4.60;;
72771;SDS011;60894;42.544;1.516;2023-07-20T00:22:02;18.33;;;4.65;;
72771;SDS011;60894;42.544;1.516;2023-07-20T00:24:30;14.20;;;4.40;;
72771;SDS011;60894;42.544;1.516;2023-07-20T00:26:59;15.43;;;3.85;;
72771;SDS011;60894;42.544;1.516;2023-07-20T00:29:27;14.30;;;4.50;;
72771;SDS011;60894;42.544;1.516;2023-07-20T00:31:54;21.47;;;5.10;;
72771;SDS011;60894;42.544;1.516;2023-07-20T00:34:22;16.95;;;4.78;;
72771;SDS011;60894;42.544;1.516;2023-07-20T00:36:49;17.50;;;5.30;;
72771;SDS011;60894;42.544;1.516;2023-07-20T00:39:16;17.85;;;4.70;;
72771;SDS011;60894;42.544;1.516;2023-07-20T00:41:43;17.92;;;4.95;;
72771;SDS011;60894;42.544;1.516;2023-07-20T00:44:11;20.77;;;5.00;;
72771;SDS011;60894;42.544;1.516;2023-07-20T00:46:38;14.88;;;4.40;;
72771;SDS011;60894;42.544;1.516;2023-07-20T00:49:06;16.98;;;4.13;;
72771;SDS011;60894;42.544;1.516;2023-07-20T00:51:34;15.82;;;4.28;;
72771;SDS011;60894;42.544;1.516;2023-07-20T00:54:01;15.60;;;3.90;;
72771;SDS011;60894;42.544;1.516;2023-07-20T00:56:28;14.87;;;4.67;;
72771;SDS011;60894;42.544;1.516;2023-07-20T00:58:55;17.30;;;5.03;;
72771;SDS011;60894;42.544;1.516;2023-07-20T01:01:25;17.95;;;4.60;;
72771;SDS011;60894;42.544;1.516;2023-07-20T01:03:52;16.15;;;4.40;;
72771;SDS011;60894;42.544;1.516;2023-07-20T01:06:23;15.70;;;4.88;;
72771;SDS011;60894;42.544;1.516;2023-07-20T01:08:57;15.00;;;4.73;;
72771;SDS011;60894;42.544;1.516;2023-07-20T01:11:33;19.75;;;5.22;;
72771;SDS011;60894;42.544;1.516;2023-07-20T01:14:38;13.80;;;4.13;;
72771;SDS011;60894;42.544;1.516;2023-07-20T01:17:07;15.30;;;4.78;;
72771;SDS011;60894;42.544;1.516;2023-07-20T01:22:22;17.40;;;4.73;;
72771;SDS011;60894;42.544;1.516;2023-07-20T01:25:21;19.23;;;5.20;;
72771;SDS011;60894;42.544;1.516;2023-07-20T01:30:59;17.08;;;4.50;;
72771;SDS011;60894;42.544;1.516;2023-07-20T01:33:54;15.43;;;5.10;;
72771;SDS011;60894;42.544;1.516;2023-07-20T01:36:24;13.17;;;3.93;;
72771;SDS011;60894;42.544;1.516;2023-07-20T01:38:53;18.40;;;4.43;;
72771;SDS011;60894;42.544;1.516;2023-07-20T01:41:21;17.30;;;5.47;;
72771;SDS011;60894;42.544;1.516;2023-07-20T01:43:48;15.65;;;4.63;;
72771;SDS011;60894;42.544;1.516;2023-07-20T01:46:15;17.63;;;4.78;;
72771;SDS011;60894;42.544;1.516;2023-07-20T01:48:42;14.73;;;4.57;;
72771;SDS011;60894;42.544;1.516;2023-07-20T01:51:10;15.70;;;5.10;;
72771;SDS011;60894;42.544;1.516;2023-07-20T01:53:38;14.77;;;4.40;;
72771;SDS011;60894;42.544;1.516;2023-07-20T01:56:05;20.08;;;4.65;;
72771;SDS011;60894;42.544;1.516;2023-07-20T01:58:32;11.88;;;4.47;;
72771;SDS011;60894;42.544;1.516;2023-07-20T02:01:00;21.90;;;4.97;;
72771;SDS011;60894;42.544;1.516;2023-07-20T02:03:28;18.15;;;4.97;;
72771;SDS011;60894;42.544;1.516;2023-07-20T02:05:55;14.30;;;4.60;;
72771;SDS011;60894;42.544;1.516;2023-07-20T02:08:24;16.33;;;4.70;;
72771;SDS011;60894;42.544;1.516;2023-07-20T02:10:51;15.48;;;4.85;;
72771;SDS011;60894;42.544;1.516;2023-07-20T02:13:18;18.87;;;4.20;;
72771;SDS011;60894;42.544;1.516;2023-07-20T02:15:45;16.40;;;4.68;;
72771;SDS011;60894;42.544;1.516;2023-07-20T02:18:14;16.02;;;4.82;;
72771;SDS011;60894;42.544;1.516;2023-07-20T02:20:41;14.13;;;4.63;;
72771;SDS011;60894;42.544;1.516;2023-07-20T02:23:09;16.20;;;4.13;;
72771;SDS011;60894;42.544;1.516;2023-07-20T02:25:38;15.30;;;5.07;;
72771;SDS011;60894;42.544;1.516;2023-07-20T02:28:06;16.70;;;4.80;;
72771;SDS011;60894;42.544;1.516;2023-07-20T02:30:36;17.25;;;4.85;;
72771;SDS011;60894;42.544;1.516;2023-07-20T02:33:04;17.33;;;4.30;;
72771;SDS011;60894;42.544;1.516;2023-07-20T02:35:31;13.50;;;4.68;;
72771;SDS011;60894;42.544;1.516;2023-07-20T02:37:58;14.63;;;5.10;;
72771;SDS011;60894;42.544;1.516;2023-07-20T02:40:25;17.35;;;4.53;;
72771;SDS011;60894;42.544;1.516;2023-07-20T02:42:54;15.80;;;4.78;;
72771;SDS011;60894;42.544;1.516;2023-07-20T02:45:21;17.30;;;4.47;;
72771;SDS011;60894;42.544;1.516;2023-07-20T02:47:48;16.02;;;4.50;;
72771;SDS011;60894;42.544;1.516;2023-07-20T02:50:16;16.87;;;4.87;;
72771;SDS011;60894;42.544;1.516;2023-07-20T02:52:43;16.25;;;4.75;;
72771;SDS011;60894;42.544;1.516;2023-07-20T02:55:10;17.15;;;4.95;;
72771;SDS011;60894;42.544;1.516;2023-07-20T02:57:37;11.90;;;4.05;;
72771;SDS011;60894;42.544;1.516;2023-07-20T03:00:06;16.05;;;5.38;;
72771;SDS011;60894;42.544;1.516;2023-07-20T03:02:34;13.93;;;4.47;;
72771;SDS011;60894;42.544;1.516;2023-07-20T03:05:01;17.65;;;5.38;;
72771;SDS011;60894;42.544;1.516;2023-07-20T03:07:31;16.98;;;4.45;;
72771;SDS011;60894;42.544;1.516;2023-07-20T03:09:58;17.98;;;4.50;;
72771;SDS011;60894;42.544;1.516;2023-07-20T03:12:25;13.80;;;4.70;;
72771;SDS011;60894;42.544;1.516;2023-07-20T03:14:52;15.03;;;5.00;;
72771;SDS011;60894;42.544;1.516;2023-07-20T03:17:23;16.63;;;4.68;;
72771;SDS011;60894;42.544;1.516;2023-07-20T03:19:50;18.33;;;4.97;;
72771;SDS011;60894;42.544;1.516;2023-07-20T03:22:17;13.43;;;4.72;;
72771;SDS011;60894;42.544;1.516;2023-07-20T03:24:44;15.70;;;5.13;;
72771;SDS011;60894;42.544;1.516;2023-07-20T03:27:11;16.23;;;5.00;;
72771;SDS011;60894;42.544;1.516;2023-07-20T03:29:38;18.98;;;4.15;;
72771;SDS011;60894;42.544;1.516;2023-07-20T03:32:06;16.10;;;4.65;;
72771;SDS011;60894;42.544;1.516;2023-07-20T03:34:34;14.65;;;5.10;;
72771;SDS011;60894;42.544;1.516;2023-07-20T03:37:01;13.75;;;4.85;;
72771;SDS011;60894;42.544;1.516;2023-07-20T03:39:29;16.90;;;4.73;;
72771;SDS011;60894;42.544;1.516;2023-07-20T03:41:57;17.00;;;5.05;;
72771;SDS011;60894;42.544;1.516;2023-07-20T03:44:24;17.02;;;4.95;;
72771;SDS011;60894;42.544;1.516;2023-07-20T03:46:51;18.08;;;4.57;;
72771;SDS011;60894;42.544;1.516;2023-07-20T03:49:18;17.90;;;5.00;;
72771;SDS011;60894;42.544;1.516;2023-07-20T03:51:47;18.00;;;5.17;;
72771;SDS011;60894;42.544;1.516;2023-07-20T03:54:14;15.75;;;4.43;;
72771;SDS011;60894;42.544;1.516;2023-07-20T03:56:41;16.10;;;4.85;;
72771;SDS011;60894;42.544;1.516;2023-07-20T03:59:08;14.95;;;4.78;;
72771;SDS011;60894;42.544;1.516;2023-07-20T04:01:35;14.57;;;4.65;;
72771;SDS011;60894;42.544;1.516;2023-07-20T04:04:04;20.87;;;5.00;;
72771;SDS011;60894;42.544;1.516;2023-07-20T04:06:33;17.45;;;4.60;;
72771;SDS011;60894;42.544;1.516;2023-07-20T04:09:03;16.17;;;4.32;;
72771;SDS011;60894;42.544;1.516;2023-07-20T04:11:31;17.58;;;4.68;;
72771;SDS011;60894;42.544;1.516;2023-07-20T04:13:58;15.77;;;4.90;;
72771;SDS011;60894;42.544;1.516;2023-07-20T04:16:25;14.50;;;4.53;;
72771;SDS011;60894;42.544;1.516;2023-07-20T04:18:54;16.30;;;5.25;;
72771;SDS011;60894;42.544;1.516;2023-07-20T04:21:21;16.25;;;6.13;;
72771;SDS011;60894;42.544;1.516;2023-07-20T04:23:49;17.35;;;4.90;;
72771;SDS011;60894;42.544;1.516;2023-07-20T04:26:17;16.13;;;4.60;;
72771;SDS011;60894;42.544;1.516;2023-07-20T04:28:44;16.03;;;4.80;;
72771;SDS011;60894;42.544;1.516;2023-07-20T04:31:12;18.67;;;4.80;;
72771;SDS011;60894;42.544;1.516;2023-07-20T04:33:39;16.98;;;4.65;;
72771;SDS011;60894;42.544;1.516;2023-07-20T04:36:07;16.90;;;4.85;;
72771;SDS011;60894;42.544;1.516;2023-07-20T04:38:34;13.70;;;4.68;;
72771;SDS011;60894;42.544;1.516;2023-07-20T04:41:01;17.87;;;6.10;;
72771;SDS011;60894;42.544;1.516;2023-07-20T04:43:29;15.60;;;5.40;;
72771;SDS011;60894;42.544;1.516;2023-07-20T04:45:56;12.73;;;4.68;;
72771;SDS011;60894;42.544;1.516;2023-07-20T04:48:23;17.80;;;4.82;;
72771;SDS011;60894;42.544;1.516;2023-07-20T04:50:50;14.27;;;4.70;;
72771;SDS011;60894;42.544;1.516;2023-07-20T04:53:17;14.77;;;4.90;;
72771;SDS011;60894;42.544;1.516;2023-07-20T04:55:48;20.73;;;5.63;;
72771;SDS011;60894;42.544;1.516;2023-07-20T04:58:17;15.52;;;5.60;;
72771;SDS011;60894;42.544;1.516;2023-07-20T05:00:46;16.05;;;5.20;;
72771;SDS011;60894;42.544;1.516;2023-07-20T05:03:14;16.58;;;4.90;;
72771;SDS011;60894;42.544;1.516;2023-07-20T05:05:41;20.60;;;5.37;;
72771;SDS011;60894;42.544;1.516;2023-07-20T05:08:08;16.00;;;4.60;;
72771;SDS011;60894;42.544;1.516;2023-07-20T05:10:35;21.73;;;5.53;;
72771;SDS011;60894;42.544;1.516;2023-07-20T05:13:02;14.60;;;5.15;;
72771;SDS011;60894;42.544;1.516;2023-07-20T05:15:29;16.23;;;4.50;;
72771;SDS011;60894;42.544;1.516;2023-07-20T05:17:58;16.27;;;5.30;;
72771;SDS011;60894;42.544;1.516;2023-07-20T05:20:25;13.18;;;5.20;;
72771;SDS011;60894;42.544;1.516;2023-07-20T05:22:52;12.43;;;4.65;;
72771;SDS011;60894;42.544;1.516;2023-07-20T05:25:19;16.98;;;5.15;;
72771;SDS011;60894;42.544;1.516;2023-07-20T05:27:47;13.98;;;5.07;;
72771;SDS011;60894;42.544;1.516;2023-07-20T05:30:15;16.03;;;5.40;;
72771;SDS011;60894;42.544;1.516;2023-07-20T05:32:43;17.13;;;5.15;;
72771;SDS011;60894;42.544;1.516;2023-07-20T05:35:12;18.35;;;6.32;;
72771;SDS011;60894;42.544;1.516;2023-07-20T05:37:41;17.92;;;7.07;;
72771;SDS011;60894;42.544;1.516;2023-07-20T05:40:08;16.95;;;6.57;;
72771;SDS011;60894;42.544;1.516;2023-07-20T05:42:37;19.63;;;5.63;;
72771;SDS011;60894;42.544;1.516;2023-07-20T05:45:04;16.20;;;5.60;;
72771;SDS011;60894;42.544;1.516;2023-07-20T05:47:32;16.27;;;6.45;;
72771;SDS011;60894;42.544;1.516;2023-07-20T05:49:59;15.55;;;6.20;;
72771;SDS011;60894;42.544;1.516;2023-07-20T05:52:27;16.40;;;7.57;;
72771;SDS011;60894;42.544;1.516;2023-07-20T05:54:55;21.13;;;6.67;;
72771;SDS011;60894;42.544;1.516;2023-07-20T05:57:22;20.35;;;7.10;;
72771;SDS011;60894;42.544;1.516;2023-07-20T05:59:49;16.92;;;7.55;;
72771;SDS011;60894;42.544;1.516;2023-07-20T06:02:16;23.80;;;7.65;;
72771;SDS011;60894;42.544;1.516;2023-07-20T06:04:43;23.58;;;8.10;;
72771;SDS011;60894;42.544;1.516;2023-07-20T06:07:10;21.47;;;9.30;;
72771;SDS011;60894;42.544;1.516;2023-07-20T06:09:39;19.23;;;6.15;;
72771;SDS011;60894;42.544;1.516;2023-07-20T06:12:07;19.45;;;5.90;;
72771;SDS011;60894;42.544;1.516;2023-07-20T06:14:34;21.75;;;6.13;;
72771;SDS011;60894;42.544;1.516;2023-07-20T06:17:02;20.83;;;6.93;;
72771;SDS011;60894;42.544;1.516;2023-07-20T06:19:29;25.37;;;6.97;;
72771;SDS011;60894;42.544;1.516;2023-07-20T06:21:56;19.45;;;5.93;;
72771;SDS011;60894;42.544;1.516;2023-07-20T06:24:23;19.90;;;6.82;;
72771;SDS011;60894;42.544;1.516;2023-07-20T06:26:51;27.10;;;7.97;;
72771;SDS011;60894;42.544;1.516;2023-07-20T06:29:18;22.42;;;6.82;;
72771;SDS011;60894;42.544;1.516;2023-07-20T06:31:45;23.13;;;6.57;;
72771;SDS011;60894;42.544;1.516;2023-07-20T06:34:12;22.45;;;7.20;;
72771;SDS011;60894;42.544;1.516;2023-07-20T06:36:39;20.95;;;7.10;;
72771;SDS011;60894;42.544;1.516;2023-07-20T06:39:06;17.20;;;6.35;;
72771;SDS011;60894;42.544;1.516;2023-07-20T06:41:33;18.42;;;6.07;;
72771;SDS011;60894;42.544;1.516;2023-07-20T06:44:02;21.30;;;6.50;;
72771;SDS011;60894;42.544;1.516;2023-07-20T06:46:30;18.77;;;5.80;;
72771;SDS011;60894;42.544;1.516;2023-07-20T06:48:57;17.90;;;5.63;;
72771;SDS011;60894;42.544;1.516;2023-07-20T06:51:24;20.73;;;8.18;;
72771;SDS011;60894;42.544;1.516;2023-07-20T06:53:51;17.45;;;6.40;;
72771;SDS011;60894;42.544;1.516;2023-07-20T06:56:18;20.57;;;6.27;;
72771;SDS011;60894;42.544;1.516;2023-07-20T06:58:45;23.20;;;6.47;;
72771;SDS011;60894;42.544;1.516;2023-07-20T07:01:14;23.77;;;7.22;;
72771;SDS011;60894;42.544;1.516;2023-07-20T07:07:04;19.00;;;6.30;;
72771;SDS011;60894;42.544;1.516;2023-07-20T07:09:31;19.57;;;5.83;;
72771;SDS011;60894;42.544;1.516;2023-07-20T07:15:35;29.85;;;10.27;;
72771;SDS011;60894;42.544;1.516;2023-07-20T07:18:04;96.10;;;26.67;;
72771;SDS011;60894;42.544;1.516;2023-07-20T07:20:31;105.78;;;37.35;;
72771;SDS011;60894;42.544;1.516;2023-07-20T07:22:58;32.33;;;10.30;;
72771;SDS011;60894;42.544;1.516;2023-07-20T07:25:25;37.85;;;12.77;;
72771;SDS011;60894;42.544;1.516;2023-07-20T07:28:11;34.22;;;10.98;;
72771;SDS011;60894;42.544;1.516;2023-07-20T07:30:38;25.70;;;8.95;;
72771;SDS011;60894;42.544;1.516;2023-07-20T07:33:07;24.20;;;6.38;;
72771;SDS011;60894;42.544;1.516;2023-07-20T07:35:51;31.40;;;7.73;;
72771;SDS011;60894;42.544;1.516;2023-07-20T07:38:19;18.73;;;7.57;;
72771;SDS011;60894;42.544;1.516;2023-07-20T07:40:46;21.48;;;6.35;;
72771;SDS011;60894;42.544;1.516;2023-07-20T07:43:13;23.48;;;9.05;;
72771;SDS011;60894;42.544;1.516;2023-07-20T07:45:40;23.88;;;8.43;;
72771;SDS011;60894;42.544;1.516;2023-07-20T07:48:09;21.60;;;8.50;;
72771;SDS011;60894;42.544;1.516;2023-07-20T07:50:37;25.65;;;9.18;;
72771;SDS011;60894;42.544;1.516;2023-07-20T07:53:05;23.83;;;7.28;;
72771;SDS011;60894;42.544;1.516;2023-07-20T07:55:32;20.45;;;7.03;;
72771;SDS011;60894;42.544;1.516;2023-07-20T07:57:59;25.40;;;6.47;;
72771;SDS011;60894;42.544;1.516;2023-07-20T08:00:26;22.37;;;6.20;;
72771;SDS011;60894;42.544;1.516;2023-07-20T08:02:53;19.38;;;6.43;;
72771;SDS011;60894;42.544;1.516;2023-07-20T08:05:22;23.45;;;6.10;;
72771;SDS011;60894;42.544;1.516;2023-07-20T08:07:49;22.85;;;5.88;;
72771;SDS011;60894;42.544;1.516;2023-07-20T08:10:17;23.45;;;5.95;;
72771;SDS011;60894;42.544;1.516;2023-07-20T08:12:45;24.80;;;5.40;;
72771;SDS011;60894;42.544;1.516;2023-07-20T08:15:12;22.00;;;6.03;;
72771;SDS011;60894;42.544;1.516;2023-07-20T08:17:40;25.15;;;5.65;;
72771;SDS011;60894;42.544;1.516;2023-07-20T08:20:08;20.05;;;5.15;;
72771;SDS011;60894;42.544;1.516;2023-07-20T08:22:39;18.45;;;5.32;;
72771;SDS011;60894;42.544;1.516;2023-07-20T08:25:06;22.30;;;5.20;;
72771;SDS011;60894;42.544;1.516;2023-07-20T08:27:34;19.20;;;5.18;;
72771;SDS011;60894;42.544;1.516;2023-07-20T08:30:01;19.33;;;5.70;;
72771;SDS011;60894;42.544;1.516;2023-07-20T08:32:29;18.63;;;5.22;;
72771;SDS011;60894;42.544;1.516;2023-07-20T08:34:56;17.73;;;5.53;;
72771;SDS011;60894;42.544;1.516;2023-07-20T08:37:23;24.90;;;5.00;;
72771;SDS011;60894;42.544;1.516;2023-07-20T08:39:52;20.58;;;5.43;;
72771;SDS011;60894;42.544;1.516;2023-07-20T08:42:19;18.75;;;5.22;;
72771;SDS011;60894;42.544;1.516;2023-07-20T08:44:47;24.67;;;5.30;;
72771;SDS011;60894;42.544;1.516;2023-07-20T08:47:16;20.75;;;4.90;;
72771;SDS011;60894;42.544;1.516;2023-07-20T08:49:44;22.67;;;5.97;;
72771;SDS011;60894;42.544;1.516;2023-07-20T08:52:14;14.88;;;4.40;;
72771;SDS011;60894;42.544;1.516;2023-07-20T08:54:42;22.73;;;5.05;;
72771;SDS011;60894;42.544;1.516;2023-07-20T08:57:10;20.83;;;5.15;;
72771;SDS011;60894;42.544;1.516;2023-07-20T08:59:40;21.23;;;5.10;;
72771;SDS011;60894;42.544;1.516;2023-07-20T09:02:08;19.13;;;5.00;;
72771;SDS011;60894;42.544;1.516;2023-07-20T09:04:38;16.17;;;4.55;;
72771;SDS011;60894;42.544;1.516;2023-07-20T09:07:05;20.80;;;5.28;;
72771;SDS011;60894;42.544;1.516;2023-07-20T09:09:33;19.13;;;5.70;;
72771;SDS011;60894;42.544;1.516;2023-07-20T09:12:13;20.15;;;5.43;;
72771;SDS011;60894;42.544;1.516;2023-07-20T09:14:42;15.03;;;4.50;;
72771;SDS011;60894;42.544;1.516;2023-07-20T09:17:12;17.55;;;5.35;;
72771;SDS011;60894;42.544;1.516;2023-07-20T09:19:45;22.58;;;5.20;;
72771;SDS011;60894;42.544;1.516;2023-07-20T09:22:13;19.45;;;4.90;;
72771;SDS011;60894;42.544;1.516;2023-07-20T09:24:40;20.08;;;5.30;;
72771;SDS011;60894;42.544;1.516;2023-07-20T09:27:08;14.83;;;4.70;;
72771;SDS011;60894;42.544;1.516;2023-07-20T09:29:43;18.35;;;4.97;;
72771;SDS011;60894;42.544;1.516;2023-07-20T09:32:17;15.38;;;4.55;;
72771;SDS011;60894;42.544;1.516;2023-07-20T09:34:45;20.48;;;5.57;;
72771;SDS011;60894;42.544;1.516;2023-07-20T09:37:13;23.42;;;5.82;;
72771;SDS011;60894;42.544;1.516;2023-07-20T09:39:43;18.03;;;5.43;;
72771;SDS011;60894;42.544;1.516;2023-07-20T09:42:10;27.60;;;5.78;;
72771;SDS011;60894;42.544;1.516;2023-07-20T09:44:39;22.95;;;6.03;;
72771;SDS011;60894;42.544;1.516;2023-07-20T09:47:08;22.00;;;4.93;;
72771;SDS011;60894;42.544;1.516;2023-07-20T09:49:38;18.70;;;4.85;;
72771;SDS011;60894;42.544;1.516;2023-07-20T09:52:07;18.30;;;5.37;;
72771;SDS011;60894;42.544;1.516;2023-07-20T09:54:35;33.42;;;6.78;;
72771;SDS011;60894;42.544;1.516;2023-07-20T09:57:05;23.17;;;5.68;;
72771;SDS011;60894;42.544;1.516;2023-07-20T09:59:35;20.80;;;5.10;;
72771;SDS011;60894;42.544;1.516;2023-07-20T10:02:03;24.58;;;5.57;;
72771;SDS011;60894;42.544;1.516;2023-07-20T10:04:38;23.90;;;5.90;;
72771;SDS011;60894;42.544;1.516;2023-07-20T10:07:07;15.60;;;5.63;;
72771;SDS011;60894;42.544;1.516;2023-07-20T10:09:38;16.63;;;5.07;;
72771;SDS011;60894;42.544;1.516;2023-07-20T10:12:06;16.48;;;5.00;;
72771;SDS011;60894;42.544;1.516;2023-07-20T10:14:36;20.85;;;6.07;;
72771;SDS011;60894;42.544;1.516;2023-07-20T10:17:07;18.03;;;5.77;;
72771;SDS011;60894;42.544;1.516;2023-07-20T10:19:42;15.50;;;5.50;;
72771;SDS011;60894;42.544;1.516;2023-07-20T10:22:12;18.75;;;5.53;;
72771;SDS011;60894;42.544;1.516;2023-07-20T10:24:44;18.10;;;5.65;;
72771;SDS011;60894;42.544;1.516;2023-07-20T10:27:12;20.38;;;6.18;;
72771;SDS011;60894;42.544;1.516;2023-07-20T10:29:39;20.10;;;5.63;;
72771;SDS011;60894;42.544;1.516;2023-07-20T10:32:07;19.40;;;5.97;;
72771;SDS011;60894;42.544;1.516;2023-07-20T10:34:40;18.48;;;5.75;;
72771;SDS011;60894;42.544;1.516;2023-07-20T10:37:07;22.73;;;5.53;;
72771;SDS011;60894;42.544;1.516;2023-07-20T10:39:34;17.10;;;5.65;;
72771;SDS011;60894;42.544;1.516;2023-07-20T10:42:02;15.87;;;5.40;;
72771;SDS011;60894;42.544;1.516;2023-07-20T10:44:30;18.75;;;5.53;;
72771;SDS011;60894;42.544;1.516;2023-07-20T10:47:00;24.98;;;5.97;;
72771;SDS011;60894;42.544;1.516;2023-07-20T10:49:28;20.77;;;5.50;;
72771;SDS011;60894;42.544;1.516;2023-07-20T10:51:58;13.25;;;5.55;;
72771;SDS011;60894;42.544;1.516;2023-07-20T10:54:35;21.50;;;5.73;;
72771;SDS011;60894;42.544;1.516;2023-07-20T10:57:22;17.50;;;5.32;;
72771;SDS011;60894;42.544;1.516;2023-07-20T10:59:50;19.00;;;5.70;;
72771;SDS011;60894;42.544;1.516;2023-07-20T11:02:18;24.83;;;5.75;;
72771;SDS011;60894;42.544;1.516;2023-07-20T11:04:46;15.98;;;5.40;;
72771;SDS011;60894;42.544;1.516;2023-07-20T11:10:12;14.80;;;5.85;;
72771;SDS011;60894;42.544;1.516;2023-07-20T11:12:40;17.27;;;5.80;;
72771;SDS011;60894;42.544;1.516;2023-07-20T11:15:07;16.23;;;5.60;;
72771;SDS011;60894;42.544;1.516;2023-07-20T11:17:35;20.88;;;6.00;;
72771;SDS011;60894;42.544;1.516;2023-07-20T11:20:04;18.87;;;5.53;;
72771;SDS011;60894;42.544;1.516;2023-07-20T11:22:32;18.38;;;5.55;;
72771;SDS011;60894;42.544;1.516;2023-07-20T11:25:00;18.58;;;5.53;;
72771;SDS011;60894;42.544;1.516;2023-07-20T11:27:28;24.05;;;6.80;;
72771;SDS011;60894;42.544;1.516;2023-07-20T11:29:58;18.83;;;6.15;;
72771;SDS011;60894;42.544;1.516;2023-07-20T11:32:25;13.70;;;6.17;;
72771;SDS011;60894;42.544;1.516;2023-07-20T11:34:52;17.23;;;6.32;;
72771;SDS011;60894;42.544;1.516;2023-07-20T11:37:20;20.52;;;5.95;;
72771;SDS011;60894;42.544;1.516;2023-07-20T11:39:47;16.88;;;6.10;;
72771;SDS011;60894;42.544;1.516;2023-07-20T11:42:15;17.70;;;5.80;;
72771;SDS011;60894;42.544;1.516;2023-07-20T11:44:46;15.87;;;5.77;;
72771;SDS011;60894;42.544;1.516;2023-07-20T11:47:18;15.98;;;6.13;;
72771;SDS011;60894;42.544;1.516;2023-07-20T11:49:45;15.90;;;5.55;;
72771;SDS011;60894;42.544;1.516;2023-07-20T11:52:16;15.80;;;5.93;;
72771;SDS011;60894;42.544;1.516;2023-07-20T11:54:44;18.05;;;6.70;;
72771;SDS011;60894;42.544;1.516;2023-07-20T11:57:17;21.00;;;6.03;;
72771;SDS011;60894;42.544;1.516;2023-07-20T11:59:52;16.00;;;5.82;;
72771;SDS011;60894;42.544;1.516;2023-07-20T12:02:20;18.35;;;5.82;;
72771;SDS011;60894;42.544;1.516;2023-07-20T12:04:47;18.65;;;6.90;;
72771;SDS011;60894;42.544;1.516;2023-07-20T12:07:14;16.88;;;6.32;;
72771;SDS011;60894;42.544;1.516;2023-07-20T12:09:42;17.33;;;6.13;;
72771;SDS011;60894;42.544;1.516;2023-07-20T12:12:09;18.92;;;6.45;;
72771;SDS011;60894;42.544;1.516;2023-07-20T12:14:39;20.90;;;6.75;;
72771;SDS011;60894;42.544;1.516;2023-07-20T12:17:07;19.10;;;6.80;;
72771;SDS011;60894;42.544;1.516;2023-07-20T12:19:37;19.35;;;6.88;;
72771;SDS011;60894;42.544;1.516;2023-07-20T12:22:05;19.60;;;6.70;;
72771;SDS011;60894;42.544;1.516;2023-07-20T12:24:32;20.23;;;7.07;;
72771;SDS011;60894;42.544;1.516;2023-07-20T12:27:00;21.40;;;7.18;;
72771;SDS011;60894;42.544;1.516;2023-07-20T12:29:27;22.45;;;7.15;;
72771;SDS011;60894;42.544;1.516;2023-07-20T12:31:55;26.65;;;7.05;;
72771;SDS011;60894;42.544;1.516;2023-07-20T12:34:22;17.70;;;6.57;;
72771;SDS011;60894;42.544;1.516;2023-07-20T12:36:49;16.27;;;6.93;;
72771;SDS011;60894;42.544;1.516;2023-07-20T12:39:16;17.33;;;7.25;;
72771;SDS011;60894;42.544;1.516;2023-07-20T12:41:44;18.35;;;7.28;;
72771;SDS011;60894;42.544;1.516;2023-07-20T12:44:11;20.05;;;7.15;;
72771;SDS011;60894;42.544;1.516;2023-07-20T12:46:38;35.83;;;8.07;;
72771;SDS011;60894;42.544;1.516;2023-07-20T12:49:06;19.58;;;6.50;;
72771;SDS011;60894;42.544;1.516;2023-07-20T12:51:33;23.45;;;7.15;;
72771;SDS011;60894;42.544;1.516;2023-07-20T12:54:00;20.38;;;6.40;;
72771;SDS011;60894;42.544;1.516;2023-07-20T12:56:28;28.20;;;7.13;;
72771;SDS011;60894;42.544;1.516;2023-07-20T12:58:55;24.43;;;7.00;;
72771;SDS011;60894;42.544;1.516;2023-07-20T13:01:22;20.27;;;6.68;;
72771;SDS011;60894;42.544;1.516;2023-07-20T13:03:49;19.42;;;7.05;;
72771;SDS011;60894;42.544;1.516;2023-07-20T13:06:18;25.73;;;6.82;;
72771;SDS011;60894;42.544;1.516;2023-07-20T13:08:45;17.63;;;5.95;;
72771;SDS011;60894;42.544;1.516;2023-07-20T13:11:12;18.67;;;6.17;;
72771;SDS011;60894;42.544;1.516;2023-07-20T13:13:39;20.00;;;5.75;;
72771;SDS011;60894;42.544;1.516;2023-07-20T13:16:07;16.40;;;4.93;;
72771;SDS011;60894;42.544;1.516;2023-07-20T13:18:34;32.78;;;6.82;;
72771;SDS011;60894;42.544;1.516;2023-07-20T13:21:02;17.65;;;6.85;;
72771;SDS011;60894;42.544;1.516;2023-07-20T13:23:30;18.23;;;5.80;;
72771;SDS011;60894;42.544;1.516;2023-07-20T13:25:59;17.60;;;6.95;;
72771;SDS011;60894;42.544;1.516;2023-07-20T13:28:26;18.23;;;6.10;;
72771;SDS011;60894;42.544;1.516;2023-07-20T13:30:53;20.42;;;5.30;;
72771;SDS011;60894;42.544;1.516;2023-07-20T13:33:20;19.92;;;6.82;;
72771;SDS011;60894;42.544;1.516;2023-07-20T13:35:47;28.43;;;6.33;;
72771;SDS011;60894;42.544;1.516;2023-07-20T13:38:14;17.40;;;6.07;;
72771;SDS011;60894;42.544;1.516;2023-07-20T13:40:42;17.63;;;5.57;;
72771;SDS011;60894;42.544;1.516;2023-07-20T13:43:10;24.88;;;6.80;;
72771;SDS011;60894;42.544;1.516;2023-07-20T13:45:37;16.80;;;5.70;;
72771;SDS011;60894;42.544;1.516;2023-07-20T13:48:04;15.20;;;5.83;;
72771;SDS011;60894;42.544;1.516;2023-07-20T13:50:32;18.30;;;6.03;;
72771;SDS011;60894;42.544;1.516;2023-07-20T13:52:59;17.38;;;5.50;;
72771;SDS011;60894;42.544;1.516;2023-07-20T13:55:27;13.10;;;4.68;;
72771;SDS011;60894;42.544;1.516;2023-07-20T13:57:57;19.38;;;5.35;;
72771;SDS011;60894;42.544;1.516;2023-07-20T14:00:24;16.07;;;4.67;;
72771;SDS011;60894;42.544;1.516;2023-07-20T14:02:55;15.73;;;4.53;;
72771;SDS011;60894;42.544;1.516;2023-07-20T14:05:22;21.73;;;5.88;;
72771;SDS011;60894;42.544;1.516;2023-07-20T14:07:49;17.58;;;3.50;;
72771;SDS011;60894;42.544;1.516;2023-07-20T14:10:17;14.88;;;4.72;;
72771;SDS011;60894;42.544;1.516;2023-07-20T14:12:44;17.53;;;4.80;;
72771;SDS011;60894;42.544;1.516;2023-07-20T14:15:12;17.30;;;4.47;;
72771;SDS011;60894;42.544;1.516;2023-07-20T14:17:39;16.75;;;4.22;;
72771;SDS011;60894;42.544;1.516;2023-07-20T14:20:07;14.95;;;4.45;;
72771;SDS011;60894;42.544;1.516;2023-07-20T14:22:34;18.77;;;4.60;;
72771;SDS011;60894;42.544;1.516;2023-07-20T14:25:02;14.50;;;4.80;;
72771;SDS011;60894;42.544;1.516;2023-07-20T14:27:29;18.00;;;5.03;;
72771;SDS011;60894;42.544;1.516;2023-07-20T14:29:57;15.38;;;4.35;;
72771;SDS011;60894;42.544;1.516;2023-07-20T14:32:25;18.13;;;5.15;;
72771;SDS011;60894;42.544;1.516;2023-07-20T14:34:52;19.20;;;4.45;;
72771;SDS011;60894;42.544;1.516;2023-07-20T14:37:19;17.83;;;4.23;;
72771;SDS011;60894;42.544;1.516;2023-07-20T14:39:46;21.42;;;5.18;;
72771;SDS011;60894;42.544;1.516;2023-07-20T14:42:14;15.30;;;4.07;;
72771;SDS011;60894;42.544;1.516;2023-07-20T14:44:41;13.90;;;3.80;;
72771;SDS011;60894;42.544;1.516;2023-07-20T14:47:08;15.25;;;3.33;;
72771;SDS011;60894;42.544;1.516;2023-07-20T14:49:36;13.27;;;3.23;;
72771;SDS011;60894;42.544;1.516;2023-07-20T14:52:03;11.80;;;2.72;;
72771;SDS011;60894;42.544;1.516;2023-07-20T14:54:31;13.27;;;3.13;;
72771;SDS011;60894;42.544;1.516;2023-07-20T14:56:58;11.73;;;3.67;;